KSSI/SSI METAR and TAF weather

Enter ICAO airport designator
Station Type Date Time Source
KSSI METAR 2020/12/05 06:21 UTC NOAA

KSSI 050621Z AUTO 30010G16KT 10SM SCT016 SCT028 16/14 A3001 RMK AO2 T01560144


Station Type Date Time Source
KSSI Decoded METAR 2020/12/05 06:21 UTC NOAA

BRUNSWICK MC KINNON AIRPORT , GA, United States (KSSI) 31-09N 081-23W 6M
Dec 05, 2020 - 01:21 AM EST / 2020.12.05 0621 UTC
Wind: from the WNW (300 degrees) at 12 MPH (10 KT) gusting to 18 MPH (16 KT):0
Visibility: 10 mile(s):0
Sky conditions: partly cloudy
Temperature: 60.1 F (15.6 C)
Dew Point: 57.9 F (14.4 C)
Relative Humidity: 92%
Pressure (altimeter): 30.01 in. Hg (1016 hPa)
ob: KSSI 050621Z AUTO 30010G16KT 10SM SCT016 SCT028 16/14 A3001 RMK AO2 T01560144
cycle: 6

Station Type Date Time Source
KSSI TAF 2020/12/05 06:22 UTC NOAA

TAF KSSI 050520Z 0506/0606 26011KT P6SM BKN015 OVC050
TEMPO 0506/0508 SCT020
FM050900 32011KT P6SM SCT025
FM051300 31012KT P6SM SKC
FM052200 30006KT P6SM FEW250

Example: see airport list